createdAt,value
2016-09-10T05:01:01.950Z,22.14
2016-09-10T05:01:29.354Z,22.31
2016-09-10T05:01:54.973Z,22.35
2016-09-10T05:02:20.507Z,22.39
2016-09-10T05:02:46.104Z,22.44
2016-09-10T05:03:11.943Z,22.53
2016-09-10T05:03:37.495Z,22.57
2016-09-10T05:04:03.083Z,22.56
2016-09-10T05:04:28.760Z,22.59
2016-09-10T05:04:54.329Z,22.65
2016-09-10T05:05:19.935Z,22.62
2016-09-10T05:05:45.459Z,22.62
2016-09-10T05:06:11.181Z,22.62
2016-09-10T05:06:36.739Z,22.6
2016-09-10T05:07:02.295Z,22.65
2016-09-10T05:07:27.830Z,22.64
2016-09-10T05:07:53.396Z,22.6
2016-09-10T05:08:18.925Z,22.67
2016-09-10T05:08:44.491Z,22.56
2016-09-10T05:09:10.076Z,22.68
2016-09-10T05:09:35.611Z,22.62
2016-09-10T05:10:02.159Z,22.64
2016-09-10T05:10:26.907Z,22.68
2016-09-10T05:10:52.490Z,22.59
2016-09-10T05:11:18.050Z,22.64
2016-09-10T05:11:43.600Z,22.65
2016-09-10T05:12:09.171Z,22.65
2016-09-10T05:12:34.874Z,22.57
2016-09-10T05:13:00.783Z,22.68
2016-09-10T05:13:26.364Z,22.6
2016-09-10T05:13:51.909Z,22.6
2016-09-10T05:14:17.474Z,22.59
2016-09-10T05:14:43.059Z,22.6
2016-09-10T05:15:08.739Z,22.53
2016-09-10T05:15:34.351Z,22.64
2016-09-10T05:16:00.032Z,22.59
2016-09-10T05:16:25.572Z,22.53
2016-09-10T05:16:51.160Z,22.67
2016-09-10T05:17:16.769Z,22.59
2016-09-10T05:17:42.745Z,22.62
2016-09-10T05:18:08.419Z,22.67
2016-09-10T05:18:34.024Z,22.64
2016-09-10T05:18:59.575Z,22.64
2016-09-10T05:19:25.219Z,22.56
2016-09-10T05:20:13.186Z,22.62
2016-09-10T05:20:38.760Z,22.62
2016-09-10T05:21:04.305Z,22.54
2016-09-10T05:21:29.848Z,22.67
2016-09-10T05:21:55.498Z,22.6
2016-09-10T05:22:21.121Z,22.57
2016-09-10T05:22:46.951Z,22.65
2016-09-10T05:23:12.378Z,22.65
2016-09-10T05:23:37.933Z,22.67
2016-09-10T05:24:03.501Z,22.6
2016-09-10T05:24:29.061Z,22.57
2016-09-10T05:24:54.681Z,22.62
2016-09-10T05:25:20.277Z,22.67
2016-09-10T05:25:45.862Z,22.65
2016-09-10T05:26:11.592Z,22.64
2016-09-10T05:26:37.137Z,22.67
2016-09-10T05:27:02.890Z,22.62
2016-09-10T05:27:28.601Z,22.65
2016-09-10T05:27:54.226Z,22.65
2016-09-10T05:28:19.810Z,22.57
2016-09-10T05:28:45.506Z,22.72
2016-09-10T05:29:11.147Z,22.67
2016-09-10T05:29:36.692Z,22.68
2016-09-10T05:30:02.791Z,22.72
2016-09-10T05:30:28.201Z,22.69
2016-09-10T05:30:53.736Z,22.6
2016-09-10T05:31:19.326Z,22.72
2016-09-10T05:31:44.863Z,22.56
2016-09-10T05:32:10.650Z,22.67
2016-09-10T05:32:36.246Z,22.65
2016-09-10T05:33:01.807Z,22.68
2016-09-10T05:33:27.430Z,22.64
2016-09-10T05:33:53.031Z,22.69
2016-09-10T05:34:18.659Z,22.71
2016-09-10T05:34:44.218Z,22.71
2016-09-10T05:35:09.773Z,22.56
2016-09-10T05:35:35.331Z,22.72
2016-09-10T05:36:01.170Z,22.71
2016-09-10T05:36:26.771Z,22.57
2016-09-10T05:36:52.298Z,22.64
2016-09-10T05:37:17.966Z,22.54
2016-09-10T05:37:43.520Z,22.65
2016-09-10T05:38:09.104Z,22.71
2016-09-10T05:38:34.661Z,22.65
2016-09-10T05:39:00.256Z,22.67
2016-09-10T05:39:25.853Z,22.69
2016-09-10T05:39:51.406Z,22.69
2016-09-10T05:40:17.223Z,22.68
2016-09-10T05:40:42.807Z,22.68
2016-09-10T05:41:08.413Z,22.67
2016-09-10T05:41:33.950Z,22.75
2016-09-10T05:41:59.502Z,22.71
2016-09-10T05:42:25.349Z,22.68
2016-09-10T05:42:50.918Z,22.67
2016-09-10T05:43:16.730Z,22.74
2016-09-10T05:43:42.362Z,22.59
2016-09-10T05:44:07.933Z,22.57
2016-09-10T05:44:33.491Z,22.78
2016-09-10T05:44:59.066Z,22.71
2016-09-10T05:45:24.861Z,22.72
2016-09-10T05:45:50.900Z,22.68
2016-09-10T05:46:16.633Z,22.72
2016-09-10T05:46:42.264Z,22.69
2016-09-10T05:47:07.838Z,22.6
2016-09-10T05:47:33.391Z,22.64
2016-09-10T05:47:58.949Z,22.65
2016-09-10T05:48:24.581Z,22.68
2016-09-10T05:48:50.142Z,22.71
2016-09-10T05:49:15.891Z,22.74
2016-09-10T05:49:41.488Z,22.69
2016-09-10T05:50:07.341Z,22.69
2016-09-10T05:50:33.854Z,22.74
2016-09-10T05:51:00.051Z,22.65
2016-09-10T05:51:25.612Z,22.74
2016-09-10T05:51:51.196Z,22.71
2016-09-10T05:52:16.825Z,22.72
2016-09-10T05:52:42.457Z,22.71
2016-09-10T05:53:08.028Z,22.82
2016-09-10T05:53:33.634Z,22.75
2016-09-10T05:53:59.266Z,22.74
2016-09-10T05:54:24.860Z,22.77
2016-09-10T05:54:50.451Z,22.8
2016-09-10T05:55:16.098Z,22.78
2016-09-10T05:55:41.718Z,22.77
2016-09-10T05:56:07.473Z,22.72
2016-09-10T05:56:33.095Z,22.8
2016-09-10T05:56:59.211Z,22.71
2016-09-10T05:57:24.802Z,22.78
2016-09-10T05:57:51.111Z,22.77
2016-09-10T05:58:44.280Z,22.72
2016-09-10T05:59:09.862Z,22.71
2016-09-10T05:59:35.412Z,22.71
2016-09-10T06:00:00.970Z,22.62
2016-09-10T06:00:26.582Z,22.6
2016-09-10T06:00:52.128Z,22.71
2016-09-10T06:01:40.008Z,22.56
2016-09-10T06:02:05.653Z,22.6
2016-09-10T06:02:31.208Z,22.65
2016-09-10T06:02:57.061Z,22.62
2016-09-10T06:03:22.746Z,22.59
2016-09-10T06:03:48.289Z,22.62
2016-09-10T06:04:13.877Z,22.54
2016-09-10T06:04:39.498Z,22.56
2016-09-10T06:05:05.115Z,22.6
2016-09-10T06:05:31.198Z,22.54
2016-09-10T06:05:56.208Z,22.64
2016-09-10T06:06:21.774Z,22.57
2016-09-10T06:06:47.428Z,22.64
2016-09-10T06:07:13.033Z,22.68
2016-09-10T06:07:38.627Z,22.6
2016-09-10T06:08:04.192Z,22.67
2016-09-10T06:08:29.805Z,22.54
2016-09-10T06:08:55.458Z,22.57
2016-09-10T06:09:21.591Z,22.6
2016-09-10T06:09:47.134Z,22.67
2016-09-10T06:10:13.156Z,22.62
2016-09-10T06:10:38.724Z,22.56
2016-09-10T06:11:04.581Z,22.59
2016-09-10T06:11:30.207Z,22.67
2016-09-10T06:11:55.864Z,22.62
2016-09-10T06:12:21.536Z,22.64
2016-09-10T06:12:47.075Z,22.52
2016-09-10T06:13:12.717Z,22.52
2016-09-10T06:13:38.270Z,22.56
2016-09-10T06:14:03.821Z,22.67
2016-09-10T06:14:29.552Z,22.64
2016-09-10T06:14:55.137Z,22.65
2016-09-10T06:15:20.776Z,22.65
2016-09-10T06:15:46.389Z,22.62
2016-09-10T06:16:12.210Z,22.53
2016-09-10T06:16:37.750Z,22.68
2016-09-10T06:17:03.938Z,22.56
2016-09-10T06:17:29.535Z,22.65
2016-09-10T06:17:55.092Z,22.69
2016-09-10T06:18:20.661Z,22.6
2016-09-10T06:18:46.200Z,22.67
2016-09-10T06:19:12.398Z,22.65
2016-09-10T06:19:37.841Z,22.56
2016-09-10T06:20:03.406Z,22.65
2016-09-10T06:20:29.016Z,22.71
2016-09-10T06:20:54.569Z,22.71
2016-09-10T06:21:20.302Z,22.67
2016-09-10T06:21:45.965Z,22.67
2016-09-10T06:22:11.544Z,22.54
2016-09-10T06:22:37.474Z,22.65
2016-09-10T06:23:02.973Z,22.57
2016-09-10T06:23:28.805Z,22.71
2016-09-10T06:23:54.423Z,22.57
2016-09-10T06:24:20.057Z,22.62
2016-09-10T06:24:45.774Z,22.69
2016-09-10T06:25:11.334Z,22.65
2016-09-10T06:25:36.978Z,22.57
2016-09-10T06:26:02.574Z,22.68
2016-09-10T06:26:28.378Z,22.71
2016-09-10T06:26:53.934Z,22.67
2016-09-10T06:27:19.605Z,22.68
2016-09-10T06:27:45.179Z,22.64
2016-09-10T06:28:11.057Z,22.64
2016-09-10T06:28:36.751Z,22.68
2016-09-10T06:29:02.445Z,22.68
2016-09-10T06:29:28.085Z,22.68
2016-09-10T06:29:53.687Z,22.72
2016-09-10T06:30:19.331Z,22.68
2016-09-10T06:30:44.898Z,22.62
2016-09-10T06:31:10.514Z,22.72
2016-09-10T06:31:36.143Z,22.6
2016-09-10T06:32:01.735Z,22.74
2016-09-10T06:32:27.362Z,22.74
2016-09-10T06:32:52.932Z,22.77
2016-09-10T06:33:18.503Z,22.72
2016-09-10T06:33:44.145Z,22.75
2016-09-10T06:34:09.689Z,22.74
2016-09-10T06:34:35.276Z,22.69
2016-09-10T06:35:00.885Z,22.75
2016-09-10T06:35:26.448Z,22.82
2016-09-10T06:35:52.170Z,22.82
2016-09-10T06:36:17.795Z,22.78
2016-09-10T06:36:43.343Z,22.74
2016-09-10T06:37:09.098Z,22.8
2016-09-10T06:37:34.830Z,22.72
2016-09-10T06:38:00.598Z,22.82
2016-09-10T06:38:26.249Z,22.72
2016-09-10T06:39:34.548Z,22.86
2016-09-10T06:40:00.111Z,22.93
2016-09-10T06:40:25.817Z,22.94
2016-09-10T06:40:51.415Z,22.9
2016-09-10T06:41:17.022Z,22.94
2016-09-10T06:41:42.575Z,22.89
2016-09-10T06:42:08.182Z,22.97
2016-09-10T06:42:33.753Z,22.97
2016-09-10T06:43:36.912Z,22.9
2016-09-10T06:44:02.500Z,23.01
2016-09-10T06:44:28.083Z,22.96
2016-09-10T06:44:53.679Z,22.96
2016-09-10T06:45:19.502Z,22.99
2016-09-10T06:45:45.053Z,22.96
2016-09-10T06:46:10.652Z,22.97
2016-09-10T06:46:36.255Z,22.99
2016-09-10T06:47:02.639Z,22.96
2016-09-10T06:47:28.277Z,22.93
2016-09-10T06:47:54.026Z,23.01
2016-09-10T06:48:19.815Z,22.94
2016-09-10T06:48:45.398Z,22.99
2016-09-10T06:49:10.963Z,22.99
2016-09-10T06:49:36.622Z,22.94
2016-09-10T06:50:02.700Z,22.99
2016-09-10T06:50:28.260Z,23.02
2016-09-10T06:50:53.856Z,22.99
2016-09-10T06:51:19.596Z,23.01
2016-09-10T06:51:45.239Z,22.94
2016-09-10T06:52:10.836Z,23.01
2016-09-10T06:52:36.439Z,22.97
2016-09-10T06:53:02.077Z,22.99
2016-09-10T06:53:27.788Z,23.01
2016-09-10T06:53:53.404Z,23.05
2016-09-10T06:54:19.132Z,23.02
2016-09-10T06:54:44.871Z,23.08
2016-09-10T06:55:10.521Z,22.97
2016-09-10T06:55:36.178Z,23.05
2016-09-10T06:56:01.840Z,23.02
2016-09-10T06:56:27.491Z,23.05
2016-09-10T06:56:53.097Z,23.07
2016-09-10T06:57:18.760Z,23.04
2016-09-10T06:57:44.590Z,23.05
2016-09-10T06:58:10.174Z,23.07
2016-09-10T06:58:35.898Z,23.05
2016-09-10T06:59:01.459Z,23.08
2016-09-10T06:59:27.085Z,23.08
2016-09-10T06:59:52.647Z,23.05
2016-09-10T07:00:19.053Z,23.08
2016-09-10T07:00:44.616Z,23.05
2016-09-10T07:01:10.179Z,23.04
2016-09-10T07:01:35.742Z,23.11
2016-09-10T07:02:01.743Z,23.08
2016-09-10T07:02:27.491Z,23.17
2016-09-10T07:02:53.053Z,23.11
2016-09-10T07:03:18.622Z,23.12
2016-09-10T07:03:44.208Z,23.14
2016-09-10T07:04:09.786Z,23.2
2016-09-10T07:04:35.411Z,23.09
2016-09-10T07:05:00.992Z,23.12
2016-09-10T07:05:27.017Z,23.2
2016-09-10T07:05:52.882Z,23.14
2016-09-10T07:06:18.484Z,23.08
2016-09-10T07:06:44.151Z,23.17
2016-09-10T07:07:09.949Z,23.14
2016-09-10T07:07:35.522Z,23.14
2016-09-10T07:08:01.832Z,23.11
2016-09-10T07:08:28.628Z,23.15
2016-09-10T07:08:54.370Z,23.15
2016-09-10T07:09:19.936Z,23.12
2016-09-10T07:09:45.514Z,23.08
2016-09-10T07:10:11.076Z,23.17
2016-09-10T07:10:36.647Z,23.12
2016-09-10T07:11:02.328Z,23.14
2016-09-10T07:11:28.150Z,23.19
2016-09-10T07:12:36.514Z,23.15
2016-09-10T07:13:02.140Z,23.12
2016-09-10T07:13:27.806Z,23.19
2016-09-10T07:13:53.504Z,23.19
2016-09-10T07:14:19.144Z,23.14
2016-09-10T07:14:44.764Z,23.15
2016-09-10T07:15:10.323Z,23.11
2016-09-10T07:15:36.093Z,23.19
2016-09-10T07:16:01.657Z,23.2
2016-09-10T07:16:27.199Z,23.19
2016-09-10T07:16:52.776Z,23.15
2016-09-10T07:17:18.503Z,23.15
2016-09-10T07:17:44.003Z,23.19
2016-09-10T07:18:09.565Z,23.17
2016-09-10T07:18:35.181Z,23.17
2016-09-10T07:19:00.726Z,23.17
2016-09-10T07:19:26.349Z,23.17
2016-09-10T07:19:51.926Z,23.17
2016-09-10T07:20:17.807Z,23.2
2016-09-10T07:20:43.383Z,23.2
2016-09-10T07:21:08.975Z,23.17
2016-09-10T07:21:34.569Z,23.26
2016-09-10T07:22:00.243Z,23.2
2016-09-10T07:22:25.877Z,23.26
2016-09-10T07:22:51.495Z,23.15
2016-09-10T07:23:17.288Z,23.2
2016-09-10T07:23:42.892Z,23.2
2016-09-10T07:24:08.764Z,23.15
2016-09-10T07:24:34.384Z,23.15
2016-09-10T07:24:59.949Z,23.02
2016-09-10T07:25:25.540Z,22.96
2016-09-10T07:25:51.128Z,22.97
2016-09-10T07:26:16.816Z,23.05
2016-09-10T07:26:42.483Z,23.05
2016-09-10T07:27:08.068Z,22.99
2016-09-10T07:27:33.694Z,23.07
2016-09-10T07:27:59.241Z,22.99
2016-09-10T07:28:24.765Z,23.02
2016-09-10T07:28:50.319Z,23.04
2016-09-10T07:29:15.980Z,23.04
2016-09-10T07:29:41.538Z,23.05
2016-09-10T07:30:07.109Z,23.02
2016-09-10T07:30:32.657Z,23.09
2016-09-10T07:30:58.253Z,23.02
2016-09-10T07:31:23.812Z,23.02
2016-09-10T07:31:49.444Z,23.07
2016-09-10T07:32:15.048Z,23.08
2016-09-10T07:32:40.644Z,23.05
2016-09-10T07:33:06.214Z,23.14
2016-09-10T07:33:31.894Z,23.08
2016-09-10T07:33:57.478Z,23.08
2016-09-10T07:34:23.091Z,23.08
2016-09-10T07:34:48.648Z,23.11
2016-09-10T07:35:14.874Z,23.17
2016-09-10T07:35:40.946Z,23.12
2016-09-10T07:36:06.615Z,23.05
2016-09-10T07:36:32.200Z,23.09
2016-09-10T07:36:57.782Z,23.09
2016-09-10T07:37:23.545Z,23.11
2016-09-10T07:37:49.141Z,23.07
2016-09-10T07:38:14.772Z,23.07
2016-09-10T07:38:40.426Z,23.12
2016-09-10T07:39:06.023Z,23.04
2016-09-10T07:39:31.598Z,23.11
2016-09-10T07:39:57.148Z,23.11
2016-09-10T07:40:23.546Z,23.09
2016-09-10T07:40:49.106Z,23.05
2016-09-10T07:41:14.795Z,23.08
2016-09-10T07:41:40.373Z,23.12
2016-09-10T07:42:05.953Z,23.07
2016-09-10T07:42:31.521Z,23.17
2016-09-10T07:42:57.164Z,23.11
2016-09-10T07:43:22.783Z,23.14
2016-09-10T07:43:48.325Z,23.11
2016-09-10T07:44:13.905Z,23.11
2016-09-10T07:44:39.560Z,23.19
2016-09-10T07:45:05.142Z,23.11
2016-09-10T07:45:30.887Z,23.09
2016-09-10T07:45:56.482Z,23.12
2016-09-10T07:46:22.018Z,23.09
2016-09-10T07:46:47.726Z,23.11
2016-09-10T07:47:14.738Z,23.12
2016-09-10T07:47:40.486Z,23.12
2016-09-10T07:48:06.295Z,23.11
2016-09-10T07:48:31.852Z,23.08
2016-09-10T07:48:57.405Z,23.14
2016-09-10T07:49:23.093Z,23.19
2016-09-10T07:49:48.796Z,23.14
2016-09-10T07:50:14.377Z,23.15
2016-09-10T07:50:39.914Z,23.12
2016-09-10T07:51:05.518Z,23.11
2016-09-10T07:51:31.192Z,23.12
2016-09-10T07:51:56.760Z,23.09
2016-09-10T07:52:22.376Z,23.14
2016-09-10T07:52:48.083Z,23.09
2016-09-10T07:53:13.633Z,23.09
2016-09-10T07:53:39.228Z,23.07
2016-09-10T07:54:04.870Z,23.05
2016-09-10T07:54:30.496Z,23.07
2016-09-10T07:54:56.161Z,23.12
2016-09-10T07:55:21.747Z,23.09
2016-09-10T07:55:47.334Z,23.07
2016-09-10T07:56:12.916Z,23.15
2016-09-10T07:56:38.480Z,23.15
2016-09-10T07:57:04.057Z,23.15
2016-09-10T07:57:29.605Z,23.09
2016-09-10T07:57:55.151Z,23.17
2016-09-10T07:58:20.820Z,23.08
2016-09-10T07:58:46.475Z,23.15
2016-09-10T07:59:12.108Z,23.14
2016-09-10T07:59:37.790Z,23.12
2016-09-10T08:00:03.418Z,23.15
2016-09-10T08:00:29.129Z,23.12
2016-09-10T08:00:54.686Z,23.15
2016-09-10T08:01:20.235Z,23.15
2016-09-10T08:01:45.853Z,23.11
2016-09-10T08:02:11.443Z,23.17
2016-09-10T08:02:37.002Z,23.15
2016-09-10T08:03:02.557Z,23.22
2016-09-10T08:03:28.149Z,23.14
2016-09-10T08:03:53.707Z,23.09
2016-09-10T08:04:19.258Z,23.15
2016-09-10T08:04:44.885Z,23.19
2016-09-10T08:05:10.455Z,23.2
2016-09-10T08:05:36.051Z,23.17
2016-09-10T08:06:01.606Z,23.19
2016-09-10T08:06:27.307Z,23.12
2016-09-10T08:06:52.908Z,23.17
2016-09-10T08:07:18.469Z,23.14
2016-09-10T08:07:44.052Z,23.14
2016-09-10T08:08:09.590Z,23.2
2016-09-10T08:08:35.136Z,23.19
2016-09-10T08:09:00.689Z,23.17
2016-09-10T08:09:26.432Z,23.19
2016-09-10T08:09:51.989Z,23.19
2016-09-10T08:10:17.777Z,23.19
2016-09-10T08:10:43.494Z,23.2
2016-09-10T08:11:09.595Z,23.15
2016-09-10T08:11:35.015Z,23.15
2016-09-10T08:12:00.675Z,23.19
2016-09-10T08:12:26.279Z,23.2
2016-09-10T08:12:51.872Z,23.15
2016-09-10T08:13:17.470Z,23.2
2016-09-10T08:13:43.153Z,23.2
2016-09-10T08:14:08.775Z,23.19
2016-09-10T08:14:34.391Z,23.22
2016-09-10T08:15:00.320Z,23.24
2016-09-10T08:15:26.234Z,23.2
2016-09-10T08:15:51.953Z,23.26
2016-09-10T08:16:17.608Z,23.2
2016-09-10T08:16:43.188Z,23.29
2016-09-10T08:17:08.795Z,23.2
2016-09-10T08:17:34.526Z,23.26
2016-09-10T08:18:00.324Z,23.23
2016-09-10T08:18:25.782Z,23.23
2016-09-10T08:18:51.391Z,23.22
2016-09-10T08:19:16.977Z,23.22
2016-09-10T08:19:42.601Z,23.22
2016-09-10T08:20:08.166Z,23.2
2016-09-10T08:20:33.755Z,23.29
2016-09-10T08:20:59.317Z,23.22
2016-09-10T08:21:24.885Z,23.27
2016-09-10T08:21:50.507Z,23.17
2016-09-10T08:22:16.185Z,23.2
2016-09-10T08:22:41.727Z,23.22
2016-09-10T08:23:07.392Z,23.29
2016-09-10T08:23:33.208Z,23.24
2016-09-10T08:23:58.766Z,23.2
2016-09-10T08:24:24.330Z,23.23
2016-09-10T08:24:49.911Z,23.23
2016-09-10T08:25:15.685Z,23.2
2016-09-10T08:25:41.244Z,23.23
2016-09-10T08:26:06.856Z,23.23
2016-09-10T08:26:32.422Z,23.2
2016-09-10T08:26:58.007Z,23.29
2016-09-10T08:27:23.589Z,23.23
2016-09-10T08:27:49.206Z,23.26
2016-09-10T08:28:14.789Z,23.24
2016-09-10T08:28:40.379Z,23.23
2016-09-10T08:29:05.937Z,23.32
2016-09-10T08:29:31.515Z,23.31
2016-09-10T08:29:57.192Z,23.26
2016-09-10T08:30:23.271Z,23.31
2016-09-10T08:30:48.926Z,23.23
2016-09-10T08:31:14.623Z,23.26
2016-09-10T08:31:40.187Z,23.24
2016-09-10T08:32:05.896Z,23.27
2016-09-10T08:32:31.454Z,23.22
2016-09-10T08:32:57.026Z,23.27
2016-09-10T08:33:22.712Z,23.31
2016-09-10T08:33:48.273Z,23.22
2016-09-10T08:34:13.845Z,23.22
2016-09-10T08:34:39.423Z,23.24
2016-09-10T08:35:05.006Z,23.32
2016-09-10T08:35:30.559Z,23.29
2016-09-10T08:35:56.132Z,23.2
2016-09-10T08:36:21.731Z,23.23
2016-09-10T08:36:47.307Z,23.2
2016-09-10T08:37:13.328Z,23.26
2016-09-10T08:37:38.934Z,23.2
2016-09-10T08:38:04.622Z,23.26
2016-09-10T08:38:30.211Z,23.24
2016-09-10T08:38:55.776Z,23.29
2016-09-10T08:39:21.651Z,23.26
2016-09-10T08:39:47.296Z,23.2
2016-09-10T08:40:13.085Z,23.27
2016-09-10T08:40:38.647Z,23.24
2016-09-10T08:41:04.436Z,23.26
2016-09-10T08:41:30.070Z,23.26
2016-09-10T08:41:55.716Z,23.29
2016-09-10T08:42:21.300Z,23.23
2016-09-10T08:42:46.877Z,23.23
2016-09-10T08:43:12.457Z,23.32
2016-09-10T08:43:38.124Z,23.24
2016-09-10T08:44:03.702Z,23.24
2016-09-10T08:44:29.406Z,23.32
2016-09-10T08:44:54.984Z,23.35
2016-09-10T08:45:20.576Z,23.27
2016-09-10T08:45:46.137Z,23.27
2016-09-10T08:46:11.725Z,23.31
2016-09-10T08:46:37.343Z,23.31
2016-09-10T08:47:02.947Z,23.38
2016-09-10T08:47:28.523Z,23.32
2016-09-10T08:47:54.069Z,23.32
2016-09-10T08:48:19.733Z,23.32
2016-09-10T08:48:45.336Z,23.31
2016-09-10T08:49:10.943Z,23.26
2016-09-10T08:49:36.766Z,23.34
2016-09-10T08:50:02.703Z,23.38
2016-09-10T08:50:28.266Z,23.34
2016-09-10T08:50:53.835Z,23.39
2016-09-10T08:51:19.396Z,23.4
2016-09-10T08:51:45.092Z,23.38
2016-09-10T08:52:11.320Z,23.39
2016-09-10T08:52:36.892Z,23.39
2016-09-10T08:53:03.315Z,23.29
2016-09-10T08:53:28.910Z,23.35
2016-09-10T08:53:54.526Z,23.34
2016-09-10T08:54:20.171Z,23.38
2016-09-10T08:54:45.735Z,23.27
2016-09-10T08:55:11.500Z,23.26
2016-09-10T08:55:37.198Z,23.27
2016-09-10T08:56:03.100Z,23.34
2016-09-10T08:56:28.633Z,23.31
2016-09-10T08:56:54.291Z,23.39
2016-09-10T08:57:19.871Z,23.27
2016-09-10T08:57:45.433Z,23.39
2016-09-10T08:58:12.639Z,23.4
2016-09-10T08:58:38.216Z,23.4
2016-09-10T08:59:03.999Z,23.35
2016-09-10T08:59:29.644Z,23.35
2016-09-10T08:59:55.167Z,23.39
2016-09-10T09:00:20.716Z,23.35
2016-09-10T09:00:46.382Z,23.35
2016-09-10T09:01:12.073Z,23.34
2016-09-10T09:01:37.734Z,23.39
2016-09-10T09:02:03.406Z,23.34
2016-09-10T09:02:29.090Z,23.34
2016-09-10T09:02:54.695Z,23.35
2016-09-10T09:03:20.272Z,23.35
2016-09-10T09:03:46.012Z,23.39
2016-09-10T09:04:11.595Z,23.39
2016-09-10T09:04:37.210Z,23.4
2016-09-10T09:05:03.264Z,23.39
2016-09-10T09:05:28.953Z,23.38
2016-09-10T09:05:54.545Z,23.38
2016-09-10T09:06:20.183Z,23.42
2016-09-10T09:06:45.786Z,23.4
2016-09-10T09:07:11.464Z,23.34
2016-09-10T09:07:37.181Z,23.35
2016-09-10T09:08:02.804Z,23.34
2016-09-10T09:08:28.374Z,23.39
2016-09-10T09:08:53.976Z,23.4
2016-09-10T09:09:19.590Z,23.39
2016-09-10T09:09:45.155Z,23.39
2016-09-10T09:10:11.038Z,23.4
2016-09-10T09:10:36.669Z,23.39
2016-09-10T09:11:02.250Z,23.35
2016-09-10T09:11:27.858Z,23.45
2016-09-10T09:11:53.444Z,23.4
2016-09-10T09:12:19.021Z,23.43
2016-09-10T09:12:44.565Z,23.53
2016-09-10T09:13:10.136Z,23.47
2016-09-10T09:13:36.209Z,23.46
2016-09-10T09:14:01.768Z,23.42
2016-09-10T09:14:27.413Z,23.52
2016-09-10T09:14:52.995Z,23.52
2016-09-10T09:15:18.594Z,23.42
2016-09-10T09:15:44.205Z,23.58
2016-09-10T09:16:09.803Z,23.5
2016-09-10T09:16:35.379Z,23.47
2016-09-10T09:17:00.947Z,23.46
2016-09-10T09:17:26.549Z,23.43
2016-09-10T09:17:52.215Z,23.46
2016-09-10T09:18:17.986Z,23.47
2016-09-10T09:18:43.632Z,23.5
2016-09-10T09:19:09.351Z,23.5
2016-09-10T09:19:34.969Z,23.52
2016-09-10T09:20:00.717Z,23.52
2016-09-10T09:20:26.485Z,23.43
2016-09-10T09:20:52.204Z,23.53
2016-09-10T09:21:17.774Z,23.5
2016-09-10T09:21:43.417Z,23.53
2016-09-10T09:22:08.990Z,23.53
2016-09-10T09:22:34.617Z,23.49
2016-09-10T09:23:00.282Z,23.52
2016-09-10T09:23:25.868Z,23.43
2016-09-10T09:23:51.505Z,23.52
2016-09-10T09:24:17.070Z,23.46
2016-09-10T09:24:42.618Z,23.42
2016-09-10T09:25:08.981Z,23.5
2016-09-10T09:25:34.583Z,23.47
2016-09-10T09:26:00.160Z,23.5
2016-09-10T09:26:25.797Z,23.49
2016-09-10T09:26:51.377Z,23.49
2016-09-10T09:27:17.224Z,23.52
2016-09-10T09:27:42.816Z,23.5
2016-09-10T09:28:08.399Z,23.47
2016-09-10T09:28:33.977Z,23.47
2016-09-10T09:28:59.638Z,23.57
2016-09-10T09:29:25.366Z,23.57
2016-09-10T09:29:50.933Z,23.52
2016-09-10T09:30:16.638Z,23.52
2016-09-10T09:30:42.392Z,23.5
2016-09-10T09:31:07.977Z,23.49
2016-09-10T09:31:33.580Z,23.58
2016-09-10T09:31:59.435Z,23.52
2016-09-10T09:32:24.966Z,23.55
2016-09-10T09:32:50.526Z,23.62
2016-09-10T09:33:16.151Z,23.52
2016-09-10T09:33:41.760Z,23.5
2016-09-10T09:34:07.515Z,23.53
2016-09-10T09:34:33.091Z,23.57
2016-09-10T09:34:59.002Z,23.61
2016-09-10T09:35:24.576Z,23.53
2016-09-10T09:35:50.133Z,23.6
2016-09-10T09:36:15.820Z,23.61
2016-09-10T09:36:41.446Z,23.64
2016-09-10T09:37:07.041Z,23.6
2016-09-10T09:37:32.593Z,23.62
2016-09-10T09:37:58.276Z,23.61
2016-09-10T09:38:23.863Z,23.65
2016-09-10T09:38:49.668Z,23.61
2016-09-10T09:39:15.217Z,23.61
2016-09-10T09:39:40.819Z,23.62
2016-09-10T09:40:06.622Z,23.58
2016-09-10T09:40:32.248Z,23.61
2016-09-10T09:40:57.884Z,23.61
2016-09-10T09:41:23.558Z,23.64
2016-09-10T09:42:20.710Z,23.64
2016-09-10T09:42:46.345Z,23.62
2016-09-10T09:43:11.913Z,23.68
2016-09-10T09:43:37.833Z,23.62
2016-09-10T09:44:03.436Z,23.68
2016-09-10T09:44:29.259Z,23.67
2016-09-10T09:44:54.927Z,23.62
2016-09-10T09:45:20.881Z,23.62
2016-09-10T09:45:46.459Z,23.6
2016-09-10T09:46:16.139Z,23.68
2016-09-10T09:46:42.296Z,23.65
2016-09-10T09:47:08.277Z,23.65
2016-09-10T09:47:33.874Z,23.6
2016-09-10T09:47:59.506Z,23.6
2016-09-10T09:48:25.212Z,23.65
2016-09-10T09:48:50.782Z,23.61
2016-09-10T09:49:16.393Z,23.61
2016-09-10T09:49:41.967Z,23.65
2016-09-10T09:50:07.882Z,23.7
2016-09-10T09:50:33.439Z,23.68
2016-09-10T09:50:59.038Z,23.67
2016-09-10T09:51:24.674Z,23.67
2016-09-10T09:51:50.275Z,23.76
2016-09-10T09:52:15.842Z,23.76
2016-09-10T09:52:41.414Z,23.7
2016-09-10T09:53:07.558Z,23.7
2016-09-10T09:53:33.122Z,23.71
2016-09-10T09:53:58.725Z,23.71
2016-09-10T09:54:24.371Z,23.71
2016-09-10T09:54:49.969Z,23.76
2016-09-10T09:55:15.667Z,23.77
2016-09-10T09:55:41.329Z,23.76
2016-09-10T09:56:07.359Z,23.77
2016-09-10T09:56:32.961Z,23.77
2016-09-10T09:56:58.532Z,23.72
2016-09-10T09:57:24.098Z,23.77
2016-09-10T09:57:50.024Z,23.75
2016-09-10T09:58:15.919Z,23.77
2016-09-10T09:58:41.910Z,23.76
2016-09-10T09:59:07.419Z,23.85
2016-09-10T09:59:32.988Z,23.76
2016-09-10T09:59:59.149Z,23.77
2016-09-10T10:00:24.837Z,23.79
2016-09-10T10:00:50.969Z,23.76
2016-09-10T10:01:16.553Z,23.76
2016-09-10T10:01:42.143Z,23.76
2016-09-10T10:02:08.409Z,23.85
2016-09-10T10:02:33.976Z,23.8
2016-09-10T10:03:00.216Z,23.89
2016-09-10T10:03:25.807Z,23.79
2016-09-10T10:03:51.926Z,23.83
2016-09-10T10:04:17.494Z,23.86
2016-09-10T10:04:43.078Z,23.85
2016-09-10T10:05:09.255Z,23.85
2016-09-10T10:05:34.834Z,23.89
2016-09-10T10:06:01.105Z,23.77
2016-09-10T10:06:26.648Z,23.94
2016-09-10T10:06:52.330Z,23.87
2016-09-10T10:07:18.491Z,23.85
2016-09-10T10:07:44.116Z,23.87
2016-09-10T10:08:10.435Z,23.86
2016-09-10T10:08:36.036Z,23.9
2016-09-10T10:09:02.035Z,23.9
2016-09-10T10:09:27.586Z,23.89
2016-09-10T10:09:53.156Z,23.94
2016-09-10T10:10:19.291Z,23.97
2016-09-10T10:10:45.064Z,23.95
2016-09-10T10:11:11.151Z,23.92
2016-09-10T10:11:36.690Z,23.89
2016-09-10T10:12:02.261Z,23.89
2016-09-10T10:12:28.517Z,23.94
2016-09-10T10:12:54.104Z,23.94
2016-09-10T10:13:20.291Z,23.95
2016-09-10T10:13:45.832Z,23.97
2016-09-10T10:14:12.102Z,23.95
2016-09-10T10:14:37.797Z,23.98
2016-09-10T10:15:03.840Z,23.94
2016-09-10T10:15:29.490Z,23.92
2016-09-10T10:15:55.053Z,23.97
2016-09-10T10:16:21.201Z,23.95
2016-09-10T10:16:46.732Z,23.98
2016-09-10T10:17:12.442Z,23.94
2016-09-10T10:17:38.621Z,23.95
2016-09-10T10:18:05.199Z,24
2016-09-10T10:18:30.368Z,24.01
2016-09-10T10:18:55.964Z,23.95
2016-09-10T10:19:22.245Z,23.98
2016-09-10T10:19:48.124Z,24.04
2016-09-10T10:20:13.737Z,24.07
2016-09-10T10:20:39.659Z,24.05
2016-09-10T10:21:05.299Z,23.94
2016-09-10T10:21:31.368Z,24.05
2016-09-10T10:21:56.947Z,24.07
2016-09-10T10:22:22.710Z,24.01
2016-09-10T10:22:48.804Z,24.1
2016-09-10T10:23:14.357Z,24.04
2016-09-10T10:23:40.520Z,24.02
2016-09-10T10:24:06.328Z,24.1
2016-09-10T10:24:32.365Z,24.02
2016-09-10T10:24:57.949Z,24.04
2016-09-10T10:25:23.718Z,24.05
2016-09-10T10:25:49.690Z,24.05
2016-09-10T10:26:15.747Z,24.04
2016-09-10T10:26:41.446Z,24
2016-09-10T10:27:07.129Z,24.07
2016-09-10T10:27:32.714Z,24.05
2016-09-10T10:27:58.827Z,24.12
2016-09-10T10:28:24.479Z,24.08
2016-09-10T10:28:50.598Z,24.01
2016-09-10T10:29:16.313Z,24.08
2016-09-10T10:29:42.422Z,24.14
2016-09-10T10:30:08.915Z,24.13
2016-09-10T10:30:34.489Z,24.07
2016-09-10T10:31:00.199Z,24.16
2016-09-10T10:31:26.042Z,24.13
2016-09-10T10:31:51.651Z,24.07
2016-09-10T10:32:17.229Z,24.17
2016-09-10T10:32:42.853Z,24.12
2016-09-10T10:33:08.922Z,24.22
2016-09-10T10:33:34.601Z,24.13
2016-09-10T10:34:00.736Z,24.2
2016-09-10T10:34:26.308Z,24.14
2016-09-10T10:34:52.525Z,24.13
2016-09-10T10:35:18.199Z,24.22
2016-09-10T10:35:43.778Z,24.16
2016-09-10T10:36:09.841Z,24.16
2016-09-10T10:36:35.427Z,24.2